createdAt,value
2019-03-05T00:00:43.157Z,8.17
2019-03-05T00:01:43.423Z,8.19
2019-03-05T00:02:43.331Z,8.34
2019-03-05T00:03:44.574Z,8.24
2019-03-05T00:04:43.339Z,8.31
2019-03-05T00:05:43.158Z,8.20
2019-03-05T00:06:43.095Z,8.35
2019-03-05T00:07:43.133Z,8.29
2019-03-05T00:08:43.252Z,8.17
2019-03-05T00:09:43.125Z,8.20
2019-03-05T00:10:42.910Z,8.23
2019-03-05T00:11:42.960Z,8.20
2019-03-05T00:12:42.850Z,8.28
2019-03-05T00:13:42.996Z,8.20
2019-03-05T00:14:42.801Z,8.28
2019-03-05T00:15:43.453Z,8.29
2019-03-05T00:17:42.940Z,8.29
2019-03-05T00:18:42.824Z,8.26
2019-03-05T00:20:42.776Z,8.26
2019-03-05T00:21:42.642Z,8.23
2019-03-05T00:22:42.916Z,8.17
2019-03-05T00:23:42.684Z,8.29
2019-03-05T00:24:42.573Z,8.26
2019-03-05T00:25:42.699Z,8.23
2019-03-05T00:26:42.829Z,8.29
2019-03-05T00:27:42.513Z,8.23
2019-03-05T00:28:42.563Z,8.35
2019-03-05T00:29:42.748Z,8.32
2019-03-05T00:30:42.463Z,8.21
2019-03-05T00:31:42.529Z,8.21
2019-03-05T00:32:42.479Z,8.20
2019-03-05T00:33:42.370Z,8.21
2019-03-05T00:34:42.433Z,8.21
2019-03-05T00:35:42.410Z,8.21
2019-03-05T00:36:42.588Z,8.16
2019-03-05T00:37:42.347Z,8.19
2019-03-05T00:38:42.629Z,8.16
2019-03-05T00:39:42.277Z,8.20
2019-03-05T00:40:42.282Z,8.19
2019-03-05T00:41:42.379Z,8.20
2019-03-05T00:42:42.444Z,8.21
2019-03-05T00:43:42.233Z,8.13
2019-03-05T00:44:42.100Z,8.19
2019-03-05T00:45:42.168Z,8.19
2019-03-05T00:46:42.235Z,8.16
2019-03-05T00:47:42.078Z,8.16
2019-03-05T00:48:42.403Z,8.21
2019-03-05T00:49:42.079Z,8.14
2019-03-05T00:50:42.190Z,8.16
2019-03-05T00:51:42.019Z,8.20
2019-03-05T00:52:41.909Z,8.17
2019-03-05T00:53:41.969Z,8.17
2019-03-05T00:54:42.352Z,8.21
2019-03-05T00:55:41.848Z,8.19
2019-03-05T00:56:42.066Z,8.16
2019-03-05T00:57:41.790Z,8.21
2019-03-05T00:58:42.011Z,8.20
2019-03-05T00:59:42.001Z,8.19
2019-03-05T01:00:42.321Z,8.19
2019-03-05T01:02:42.365Z,8.19
2019-03-05T01:03:41.886Z,8.17
2019-03-05T01:04:41.850Z,8.12
2019-03-05T01:05:41.727Z,8.13
2019-03-05T01:07:41.861Z,8.19
2019-03-05T01:08:41.584Z,8.17
2019-03-05T01:09:41.598Z,8.21
2019-03-05T01:10:41.585Z,8.24
2019-03-05T01:11:41.688Z,8.20
2019-03-05T01:12:41.598Z,8.20
2019-03-05T01:13:41.805Z,8.17
2019-03-05T01:14:41.399Z,8.16
2019-03-05T01:15:41.470Z,8.13
2019-03-05T01:16:41.565Z,8.09
2019-03-05T01:17:41.417Z,8.17
2019-03-05T01:18:41.392Z,8.17
2019-03-05T01:19:41.418Z,8.13
2019-03-05T01:20:41.638Z,8.16
2019-03-05T01:21:41.323Z,8.21
2019-03-05T01:22:41.317Z,8.21
2019-03-05T01:23:41.324Z,8.28
2019-03-05T01:24:41.215Z,8.19
2019-03-05T01:25:41.137Z,8.16
2019-03-05T01:26:41.501Z,8.19
2019-03-05T01:27:41.479Z,8.21
2019-03-05T01:28:41.062Z,8.24
2019-03-05T01:29:41.223Z,8.16
2019-03-05T01:30:41.218Z,8.14
2019-03-05T01:32:41.075Z,8.16
2019-03-05T01:33:41.167Z,8.16
2019-03-05T01:34:41.382Z,8.09
2019-03-05T01:35:41.293Z,8.16
2019-03-05T01:36:41.036Z,8.14
2019-03-05T01:37:41.118Z,8.06
2019-03-05T01:38:41.100Z,8.09
2019-03-05T01:39:41.010Z,8.05
2019-03-05T01:40:41.279Z,8.09
2019-03-05T01:41:40.943Z,8.13
2019-03-05T01:42:40.934Z,8.20
2019-03-05T01:43:41.116Z,8.23
2019-03-05T01:44:40.903Z,8.10
2019-03-05T01:45:40.911Z,8.06
2019-03-05T01:46:40.705Z,7.99
2019-03-05T01:47:41.073Z,7.99
2019-03-05T01:48:40.696Z,7.94
2019-03-05T01:49:40.736Z,7.88
2019-03-05T01:50:40.868Z,7.88
2019-03-05T01:51:40.590Z,7.87
2019-03-05T01:52:40.603Z,8.02
2019-03-05T01:53:40.866Z,7.86
2019-03-05T01:54:40.865Z,8.04
2019-03-05T01:55:40.560Z,7.87
2019-03-05T01:56:40.901Z,7.96
2019-03-05T01:58:40.356Z,7.96
2019-03-05T01:59:40.401Z,8.04
2019-03-05T02:00:40.307Z,8.02
2019-03-05T02:01:40.667Z,8.01
2019-03-05T02:02:40.351Z,8.01
2019-03-05T02:03:40.323Z,8.09
2019-03-05T02:04:40.213Z,8.09
2019-03-05T02:05:40.281Z,8.04
2019-03-05T02:06:40.170Z,8.04
2019-03-05T02:07:40.442Z,8.04
2019-03-05T02:08:40.212Z,8.01
2019-03-05T02:09:40.185Z,7.84
2019-03-05T02:10:40.158Z,7.84
2019-03-05T02:13:40.312Z,7.81
2019-03-05T02:14:40.060Z,7.69
2019-03-05T02:15:39.952Z,7.61
2019-03-05T02:16:39.933Z,7.69
2019-03-05T02:17:39.903Z,7.81
2019-03-05T02:18:39.974Z,7.69
2019-03-05T02:19:40.155Z,7.77
2019-03-05T02:20:39.835Z,7.69
2019-03-05T02:21:39.810Z,7.77
2019-03-05T02:23:39.854Z,7.74
2019-03-05T02:24:39.821Z,7.69
2019-03-05T02:25:40.096Z,7.71
2019-03-05T02:27:39.798Z,7.69
2019-03-05T02:28:39.724Z,7.73
2019-03-05T02:29:39.714Z,7.62
2019-03-05T02:30:39.685Z,7.68
2019-03-05T02:31:39.972Z,7.55
2019-03-05T02:32:39.664Z,7.64
2019-03-05T02:33:39.898Z,7.61
2019-03-05T02:34:39.583Z,7.60
2019-03-05T02:35:39.470Z,7.68
2019-03-05T02:36:39.468Z,7.61
2019-03-05T02:37:39.883Z,7.50
2019-03-05T02:38:39.397Z,7.52
2019-03-05T02:39:39.430Z,7.40
2019-03-05T02:40:39.436Z,7.36
2019-03-05T02:41:39.426Z,7.28
2019-03-05T02:42:39.304Z,7.25
2019-03-05T02:43:39.377Z,7.33
2019-03-05T02:44:39.640Z,7.33
2019-03-05T02:45:39.319Z,7.25
2019-03-05T02:46:39.286Z,7.26
2019-03-05T02:47:39.294Z,7.19
2019-03-05T02:48:39.273Z,7.24
2019-03-05T02:49:39.389Z,7.21
2019-03-05T02:50:39.193Z,7.21
2019-03-05T02:51:39.391Z,7.10
2019-03-05T02:52:39.233Z,7.13
2019-03-05T02:53:39.155Z,7.03
2019-03-05T02:54:39.265Z,7.06
2019-03-05T02:57:39.301Z,7.01
2019-03-05T02:58:39.077Z,6.93
2019-03-05T02:59:39.066Z,6.92
2019-03-05T03:00:38.955Z,6.82
2019-03-05T03:01:39.217Z,6.78
2019-03-05T03:02:39.282Z,6.71
2019-03-05T03:03:38.949Z,6.68
2019-03-05T03:04:39.315Z,6.57
2019-03-05T03:05:39.709Z,6.61
2019-03-05T03:06:38.725Z,6.60
2019-03-05T03:07:38.691Z,6.64
2019-03-05T03:08:38.751Z,6.64
2019-03-05T03:09:38.648Z,6.70
2019-03-05T03:10:38.704Z,6.56
2019-03-05T03:11:38.902Z,6.57
2019-03-05T03:12:38.669Z,6.50
2019-03-05T03:13:38.561Z,6.42
2019-03-05T03:14:38.624Z,6.38
2019-03-05T03:15:38.629Z,6.40
2019-03-05T03:16:38.671Z,6.38
2019-03-05T03:17:38.537Z,6.35
2019-03-05T03:18:38.808Z,6.35
2019-03-05T03:19:38.396Z,6.37
2019-03-05T03:20:38.474Z,6.32
2019-03-05T03:21:38.533Z,6.25
2019-03-05T03:22:38.323Z,6.35
2019-03-05T03:23:38.384Z,6.37
2019-03-05T03:24:38.374Z,6.35
2019-03-05T03:26:38.611Z,6.32
2019-03-05T03:27:38.301Z,6.18
2019-03-05T03:28:38.283Z,6.21
2019-03-05T03:29:38.176Z,6.18
2019-03-05T03:30:38.212Z,6.43
2019-03-05T03:31:38.099Z,6.46
2019-03-05T03:32:38.469Z,6.40
2019-03-05T03:33:38.156Z,6.30
2019-03-05T03:34:38.206Z,6.34
2019-03-05T03:35:38.091Z,6.30
2019-03-05T03:36:38.090Z,6.19
2019-03-05T03:37:38.033Z,6.25
2019-03-05T03:38:38.227Z,6.28
2019-03-05T03:39:37.951Z,6.24
2019-03-05T03:40:37.868Z,6.24
2019-03-05T03:41:37.845Z,6.32
2019-03-05T03:42:38.011Z,6.32
2019-03-05T03:43:37.964Z,6.32
2019-03-05T03:44:38.183Z,6.25
2019-03-05T03:45:37.853Z,6.35
2019-03-05T03:46:37.872Z,6.21
2019-03-05T03:47:37.801Z,6.37
2019-03-05T03:48:38.142Z,6.45
2019-03-05T03:49:37.864Z,6.43
2019-03-05T03:50:37.920Z,6.34
2019-03-05T03:52:37.711Z,6.37
2019-03-05T03:53:37.546Z,6.28
2019-03-05T03:54:37.521Z,6.32
2019-03-05T03:55:37.601Z,6.21
2019-03-05T03:56:37.856Z,6.18
2019-03-05T03:57:37.530Z,6.19
2019-03-05T03:58:37.534Z,6.34
2019-03-05T03:59:37.398Z,6.38
2019-03-05T04:00:37.370Z,6.30
2019-03-05T04:01:37.341Z,6.32
2019-03-05T04:02:37.810Z,6.28
2019-03-05T04:03:37.378Z,6.37
2019-03-05T04:04:37.355Z,6.35
2019-03-05T04:05:37.256Z,6.38
2019-03-05T04:06:37.406Z,6.35
2019-03-05T04:07:37.279Z,6.34
2019-03-05T04:08:37.261Z,6.43
2019-03-05T04:09:37.531Z,6.46
2019-03-05T04:10:37.212Z,6.47
2019-03-05T04:11:37.181Z,6.42
2019-03-05T04:13:37.146Z,6.60
2019-03-05T04:14:37.210Z,6.52
2019-03-05T04:15:37.379Z,6.53
2019-03-05T04:17:37.020Z,6.61
2019-03-05T04:18:36.967Z,6.65
2019-03-05T04:19:36.978Z,6.78
2019-03-05T04:20:36.971Z,6.70
2019-03-05T04:21:36.844Z,6.65
2019-03-05T04:22:37.208Z,6.71
2019-03-05T04:23:36.844Z,6.65
2019-03-05T04:24:36.876Z,6.78
2019-03-05T04:26:36.725Z,6.79
2019-03-05T04:27:36.780Z,6.74
2019-03-05T04:28:36.812Z,6.71
2019-03-05T04:29:37.048Z,6.71
2019-03-05T04:30:36.737Z,6.71
2019-03-05T04:31:36.800Z,6.78
2019-03-05T04:32:36.662Z,6.70
2019-03-05T04:33:36.698Z,6.78
2019-03-05T04:34:36.609Z,6.74
2019-03-05T04:36:36.883Z,6.81
2019-03-05T04:37:36.638Z,6.68
2019-03-05T04:38:36.429Z,6.68
2019-03-05T04:39:36.599Z,6.78
2019-03-05T04:40:36.372Z,6.79
2019-03-05T04:41:36.350Z,6.85
2019-03-05T04:42:36.622Z,6.81
2019-03-05T04:43:36.303Z,6.73
2019-03-05T04:44:36.273Z,6.65
2019-03-05T04:45:36.377Z,6.73
2019-03-05T04:46:36.325Z,6.78
2019-03-05T04:47:36.198Z,6.79
2019-03-05T04:48:36.557Z,6.81
2019-03-05T04:49:36.147Z,6.83
2019-03-05T04:50:36.127Z,6.70
2019-03-05T04:51:36.105Z,6.83
2019-03-05T04:52:36.072Z,6.92
2019-03-05T04:53:36.178Z,7.03
2019-03-05T04:54:36.327Z,7.06
2019-03-05T04:55:36.138Z,6.92
2019-03-05T04:56:35.971Z,6.96
2019-03-05T04:57:35.950Z,7.01
2019-03-05T04:58:36.175Z,6.96
2019-03-05T04:59:36.039Z,6.88
2019-03-05T05:00:35.928Z,6.97
2019-03-05T05:01:37.711Z,6.88
2019-03-05T05:02:36.033Z,6.86
2019-03-05T05:03:35.890Z,6.82
2019-03-05T05:04:35.901Z,6.74
2019-03-05T05:05:35.981Z,6.85
2019-03-05T05:06:35.871Z,7.01
2019-03-05T05:08:35.765Z,6.93
2019-03-05T05:09:37.754Z,6.91
2019-03-05T05:10:35.932Z,6.93
2019-03-05T05:11:35.692Z,7.07
2019-03-05T05:12:35.744Z,6.88
2019-03-05T05:13:35.994Z,6.88
2019-03-05T05:14:35.627Z,6.86
2019-03-05T05:16:35.574Z,6.81
2019-03-05T05:17:35.535Z,6.70
2019-03-05T05:18:35.434Z,6.73
2019-03-05T05:19:35.730Z,6.70
2019-03-05T05:20:35.379Z,6.73
2019-03-05T05:21:35.937Z,6.81
2019-03-05T05:22:37.004Z,6.86
2019-03-05T05:23:35.987Z,6.71
2019-03-05T05:24:35.949Z,6.65
2019-03-05T05:25:35.879Z,6.78
2019-03-05T05:26:35.331Z,6.81
2019-03-05T05:27:35.300Z,6.73
2019-03-05T05:29:35.165Z,6.65
2019-03-05T05:30:35.268Z,6.65
2019-03-05T05:31:35.370Z,6.71
2019-03-05T05:32:35.583Z,6.73
2019-03-05T05:33:35.061Z,6.79
2019-03-05T05:34:35.036Z,6.60
2019-03-05T05:35:35.020Z,6.71
2019-03-05T05:36:35.065Z,6.70
2019-03-05T05:37:35.052Z,6.71
2019-03-05T05:38:35.025Z,6.67
2019-03-05T05:39:35.220Z,6.64
2019-03-05T05:40:34.942Z,6.75
2019-03-05T05:41:34.863Z,6.75
2019-03-05T05:42:34.898Z,6.83
2019-03-05T05:43:34.930Z,6.86
2019-03-05T05:44:35.091Z,6.82
2019-03-05T05:45:35.071Z,6.73
2019-03-05T05:46:34.738Z,6.81
2019-03-05T05:47:34.789Z,6.88
2019-03-05T05:48:34.789Z,6.93
2019-03-05T05:49:34.829Z,6.89
2019-03-05T05:50:34.733Z,6.78
2019-03-05T05:51:34.724Z,6.89
2019-03-05T05:52:35.277Z,6.92
2019-03-05T05:53:34.670Z,6.93
2019-03-05T05:55:34.670Z,6.88
2019-03-05T05:56:34.616Z,6.89
2019-03-05T05:57:35.980Z,6.89
2019-03-05T05:59:34.730Z,7.01
2019-03-05T06:00:34.503Z,6.92
2019-03-05T06:01:34.479Z,6.88
2019-03-05T06:02:34.448Z,6.89
2019-03-05T06:03:34.399Z,6.86
2019-03-05T06:04:34.531Z,6.89
2019-03-05T06:05:34.480Z,6.86
2019-03-05T06:06:34.750Z,6.96
2019-03-05T06:07:34.472Z,6.91
2019-03-05T06:08:34.378Z,6.85
2019-03-05T06:09:34.177Z,6.85
2019-03-05T06:10:34.338Z,6.75
2019-03-05T06:11:34.229Z,6.67
2019-03-05T06:12:34.650Z,6.63
2019-03-05T06:13:34.180Z,6.55
2019-03-05T06:14:34.157Z,6.46
2019-03-05T06:15:34.219Z,6.35
2019-03-05T06:16:34.251Z,6.19
2019-03-05T06:17:34.284Z,6.13
2019-03-05T06:18:34.464Z,6.12
2019-03-05T06:19:34.235Z,6.18
2019-03-05T06:20:34.162Z,6.12
2019-03-05T06:21:34.261Z,6.21
2019-03-05T06:22:34.235Z,6.11
2019-03-05T06:23:34.031Z,6.02
2019-03-05T06:24:34.437Z,6.02
2019-03-05T06:25:33.944Z,5.94
2019-03-05T06:26:33.887Z,6.00
2019-03-05T06:27:34.027Z,6.00
2019-03-05T06:28:33.703Z,5.97
2019-03-05T06:29:33.814Z,5.95
2019-03-05T06:30:34.067Z,5.94
2019-03-05T06:31:33.678Z,5.91
2019-03-05T06:32:33.744Z,6.00
2019-03-05T06:33:33.706Z,5.98
2019-03-05T06:34:33.819Z,5.97
2019-03-05T06:35:33.660Z,5.97
2019-03-05T06:36:34.166Z,5.97
2019-03-05T06:37:34.007Z,5.93
2019-03-05T06:38:33.680Z,5.85
2019-03-05T06:39:33.754Z,5.76
2019-03-05T06:40:33.679Z,5.85
2019-03-05T06:41:33.669Z,5.77
2019-03-05T06:42:33.877Z,5.59
2019-03-05T06:43:33.384Z,5.66
2019-03-05T06:44:33.346Z,5.65
2019-03-05T06:45:33.394Z,5.62
2019-03-05T06:46:33.461Z,5.57
2019-03-05T06:47:33.550Z,5.59
2019-03-05T06:48:33.678Z,5.58
2019-03-05T06:49:33.427Z,5.51
2019-03-05T06:50:33.355Z,5.54
2019-03-05T06:53:33.283Z,5.57
2019-03-05T06:54:33.662Z,5.37
2019-03-05T06:55:33.307Z,5.41
2019-03-05T06:56:33.357Z,5.39
2019-03-05T06:58:33.112Z,5.43
2019-03-05T07:01:33.244Z,5.47
2019-03-05T07:02:32.856Z,5.52
2019-03-05T07:03:33.006Z,5.57
2019-03-05T07:05:32.895Z,5.57
2019-03-05T07:06:32.831Z,5.54
2019-03-05T07:07:33.104Z,5.55
2019-03-05T07:08:32.754Z,5.62
2019-03-05T07:09:32.836Z,5.47
2019-03-05T07:10:32.664Z,5.65
2019-03-05T07:11:32.693Z,5.54
2019-03-05T07:13:32.988Z,5.61
2019-03-05T07:14:32.760Z,5.62
2019-03-05T07:15:32.801Z,5.52
2019-03-05T07:16:32.710Z,5.58
2019-03-05T07:17:32.887Z,5.57
2019-03-05T07:18:32.760Z,5.61
2019-03-05T07:19:33.071Z,5.55
2019-03-05T07:20:32.733Z,5.54
2019-03-05T07:21:32.763Z,5.59
2019-03-05T07:22:32.658Z,5.58
2019-03-05T07:23:32.570Z,5.59
2019-03-05T07:24:32.915Z,5.54
2019-03-05T07:25:32.897Z,5.59
2019-03-05T07:26:32.449Z,5.67
2019-03-05T07:27:32.533Z,5.65
2019-03-05T07:28:32.343Z,5.62
2019-03-05T07:29:32.262Z,5.61
2019-03-05T07:30:32.201Z,5.61
2019-03-05T07:31:32.462Z,5.65
2019-03-05T07:32:32.285Z,5.61
2019-03-05T07:33:32.123Z,5.66
2019-03-05T07:34:32.188Z,5.70
2019-03-05T07:35:32.029Z,5.66
2019-03-05T07:36:32.075Z,5.79
2019-03-05T07:37:32.303Z,5.73
2019-03-05T07:38:32.032Z,5.80
2019-03-05T07:39:32.057Z,5.80
2019-03-05T07:40:32.211Z,5.79
2019-03-05T07:41:32.003Z,5.84
2019-03-05T07:42:31.958Z,5.91
2019-03-05T07:43:36.427Z,6.11
2019-03-05T07:44:32.003Z,6.52
2019-03-05T07:45:31.832Z,6.70
2019-03-05T07:46:31.755Z,6.92
2019-03-05T07:47:31.852Z,6.91
2019-03-05T07:48:31.845Z,6.73
2019-03-05T07:49:42.928Z,6.99
2019-03-05T07:50:31.704Z,6.99
2019-03-05T07:51:31.669Z,7.16
2019-03-05T07:52:31.679Z,7.25
2019-03-05T07:53:31.671Z,6.99
2019-03-05T07:54:31.678Z,6.93
2019-03-05T07:55:31.936Z,7.04
2019-03-05T07:58:31.562Z,7.07
2019-03-05T07:59:31.527Z,6.70
2019-03-05T08:00:31.451Z,6.71
2019-03-05T08:01:31.943Z,6.79
2019-03-05T08:02:31.499Z,6.91
2019-03-05T08:03:31.490Z,6.88
2019-03-05T08:04:31.333Z,7.03
2019-03-05T08:05:31.403Z,7.11
2019-03-05T08:06:31.349Z,7.16
2019-03-05T08:07:31.765Z,7.34
2019-03-05T08:08:31.368Z,7.40
2019-03-05T08:09:31.292Z,7.39
2019-03-05T08:10:31.310Z,7.25
2019-03-05T08:11:31.935Z,7.15
2019-03-05T08:12:31.283Z,7.11
2019-03-05T08:13:31.667Z,7.06
2019-03-05T08:14:31.593Z,7.06
2019-03-05T08:16:31.212Z,7.11
2019-03-05T08:17:31.109Z,7.13
2019-03-05T08:18:31.124Z,7.01
2019-03-05T08:19:31.499Z,7.01
2019-03-05T08:20:31.247Z,7.06
2019-03-05T08:21:31.106Z,7.73
2019-03-05T08:22:31.096Z,8.39
2019-03-05T08:23:31.083Z,8.90
2019-03-05T08:24:31.133Z,8.60
2019-03-05T08:25:31.198Z,7.83
2019-03-05T08:26:30.817Z,7.96
2019-03-05T08:27:30.969Z,7.74
2019-03-05T08:28:30.994Z,7.64
2019-03-05T08:29:30.817Z,7.68
2019-03-05T08:30:30.861Z,7.86
2019-03-05T08:31:31.061Z,7.83
2019-03-05T08:32:30.744Z,7.57
2019-03-05T08:33:30.764Z,7.58
2019-03-05T08:34:30.785Z,7.55
2019-03-05T08:35:31.055Z,7.60
2019-03-05T08:36:30.760Z,7.55
2019-03-05T08:37:31.077Z,7.58
2019-03-05T08:38:30.733Z,7.52
2019-03-05T08:39:30.678Z,7.73
2019-03-05T08:40:30.554Z,7.81
2019-03-05T08:41:30.485Z,7.76
2019-03-05T08:42:30.439Z,7.73
2019-03-05T08:43:30.771Z,7.52
2019-03-05T08:44:30.513Z,7.52
2019-03-05T08:45:30.553Z,7.44
2019-03-05T08:46:30.401Z,7.52
2019-03-05T08:47:30.387Z,7.39
2019-03-05T08:48:30.490Z,7.39
2019-03-05T08:49:30.639Z,7.31
2019-03-05T08:50:31.115Z,7.26
2019-03-05T08:52:30.360Z,7.26
2019-03-05T08:53:33.120Z,7.28
2019-03-05T08:55:31.042Z,7.25
2019-03-05T08:56:30.469Z,7.29
2019-03-05T08:57:30.129Z,7.33
2019-03-05T08:58:30.909Z,7.29
2019-03-05T08:59:32.568Z,7.37
2019-03-05T09:00:30.095Z,7.42
2019-03-05T09:01:30.375Z,7.43
2019-03-05T09:02:30.063Z,7.49
2019-03-05T09:03:30.149Z,7.37
2019-03-05T09:04:30.348Z,7.39
2019-03-05T09:05:30.021Z,7.47
2019-03-05T09:06:30.056Z,7.57
2019-03-05T09:08:30.060Z,7.60
2019-03-05T09:09:31.182Z,7.57
2019-03-05T09:10:30.097Z,7.58
2019-03-05T09:11:29.965Z,7.54
2019-03-05T09:12:30.042Z,7.57
2019-03-05T09:13:32.889Z,7.61
2019-03-05T09:14:31.352Z,7.73
2019-03-05T09:15:31.525Z,7.66
2019-03-05T09:16:29.888Z,7.55
2019-03-05T09:17:29.774Z,7.66
2019-03-05T09:18:30.091Z,7.58
2019-03-05T09:19:30.333Z,7.71
2019-03-05T09:20:29.924Z,7.73
2019-03-05T09:21:29.686Z,7.69
2019-03-05T09:22:29.609Z,7.62
2019-03-05T09:23:29.677Z,7.64
2019-03-05T09:24:31.158Z,7.54
2019-03-05T09:25:30.011Z,7.61
2019-03-05T09:26:29.757Z,7.64
2019-03-05T09:27:29.621Z,7.69
2019-03-05T09:28:29.727Z,7.74
2019-03-05T09:29:29.518Z,7.73
2019-03-05T09:30:29.552Z,7.84
2019-03-05T09:31:29.873Z,7.81
2019-03-05T09:32:29.534Z,7.81
2019-03-05T09:33:29.658Z,7.74
2019-03-05T09:34:29.328Z,7.68
2019-03-05T09:35:29.292Z,7.76
2019-03-05T09:36:29.462Z,8.99
2019-03-05T09:37:29.854Z,8.67
2019-03-05T09:38:29.572Z,9.42
2019-03-05T09:39:29.362Z,8.50
2019-03-05T09:40:29.267Z,8.44
2019-03-05T09:42:39.357Z,8.01
2019-03-05T09:43:29.543Z,8.19
2019-03-05T09:44:29.943Z,8.71
2019-03-05T09:45:29.543Z,8.65
2019-03-05T09:46:29.033Z,9.09
2019-03-05T09:47:29.005Z,8.74
2019-03-05T09:49:29.434Z,8.50
2019-03-05T09:51:29.020Z,8.35
2019-03-05T09:52:29.292Z,8.29
2019-03-05T09:53:28.963Z,8.23
2019-03-05T09:54:29.006Z,8.21
2019-03-05T09:55:29.309Z,8.47
2019-03-05T09:56:28.929Z,8.50
2019-03-05T09:57:28.816Z,8.65
2019-03-05T09:58:28.791Z,8.41
2019-03-05T09:59:28.865Z,8.34
2019-03-05T10:00:28.814Z,8.35
2019-03-05T10:01:29.303Z,8.32
2019-03-05T10:02:28.940Z,8.23
2019-03-05T10:03:28.719Z,8.34
2019-03-05T10:04:28.693Z,8.34
2019-03-05T10:05:28.766Z,8.37
2019-03-05T10:06:28.598Z,8.29
2019-03-05T10:07:29.023Z,8.46
2019-03-05T10:08:32.544Z,8.53
2019-03-05T10:09:28.576Z,8.49
2019-03-05T10:10:28.552Z,8.50
2019-03-05T10:11:28.469Z,9.32
2019-03-05T10:12:30.188Z,9.99
2019-03-05T10:13:28.933Z,9.99
2019-03-05T10:14:28.483Z,9.90
2019-03-05T10:15:28.548Z,9.85
2019-03-05T10:16:28.864Z,9.47
2019-03-05T10:17:37.602Z,9.08
2019-03-05T10:18:28.494Z,8.88
2019-03-05T10:19:29.300Z,9.19
2019-03-05T10:20:28.353Z,9.81
2019-03-05T10:21:28.629Z,10.27
2019-03-05T10:22:28.858Z,10.73
2019-03-05T10:23:28.341Z,10.55
2019-03-05T10:24:28.278Z,10.73
2019-03-05T10:25:28.582Z,10.73
2019-03-05T10:26:28.150Z,11.28
2019-03-05T10:27:28.195Z,10.61
2019-03-05T10:28:28.169Z,9.73
2019-03-05T10:31:28.624Z,9.09
2019-03-05T10:32:28.157Z,9.57
2019-03-05T10:34:28.036Z,9.15
2019-03-05T10:35:28.135Z,9.06
2019-03-05T10:36:28.008Z,9.01
2019-03-05T10:37:28.336Z,8.93
2019-03-05T10:38:27.960Z,9.04
2019-03-05T10:41:27.878Z,9.27
2019-03-05T10:42:31.725Z,9.23
2019-03-05T10:43:28.345Z,9.27
2019-03-05T10:44:27.881Z,9.18
2019-03-05T10:45:27.853Z,8.93
2019-03-05T10:46:27.846Z,8.90
2019-03-05T10:47:27.811Z,8.92
2019-03-05T10:48:30.263Z,8.89
2019-03-05T10:50:28.042Z,8.90
2019-03-05T10:51:27.702Z,8.96
2019-03-05T10:52:27.698Z,9.66
2019-03-05T10:53:27.752Z,9.96
2019-03-05T10:54:27.666Z,10.02
2019-03-05T10:55:27.625Z,9.60
2019-03-05T10:56:28.149Z,9.66
2019-03-05T10:57:27.690Z,9.83
2019-03-05T10:59:27.644Z,10.70
2019-03-05T11:00:27.675Z,10.60
2019-03-05T11:01:27.468Z,10.83
2019-03-05T11:02:27.744Z,10.72
2019-03-05T11:03:27.439Z,11.04
2019-03-05T11:04:27.576Z,10.43
2019-03-05T11:05:27.647Z,10.83
2019-03-05T11:06:27.424Z,11.40
2019-03-05T11:07:27.508Z,11.82
2019-03-05T11:08:28.040Z,11.59
2019-03-05T11:09:27.797Z,11.51
2019-03-05T11:10:27.434Z,10.75
2019-03-05T11:11:27.437Z,10.98
2019-03-05T11:12:27.387Z,10.21
2019-03-05T11:13:27.250Z,10.64
2019-03-05T11:14:27.644Z,10.02
2019-03-05T11:15:27.260Z,9.62
2019-03-05T11:16:30.679Z,10.03
2019-03-05T11:18:29.637Z,9.80
2019-03-05T11:19:27.267Z,10.09
2019-03-05T11:20:27.521Z,10.10
2019-03-05T11:21:27.250Z,9.90
2019-03-05T11:22:27.258Z,9.66
2019-03-05T11:23:27.153Z,9.84
2019-03-05T11:24:27.109Z,10.83
2019-03-05T11:25:27.094Z,11.18
2019-03-05T11:26:28.586Z,10.14
2019-03-05T11:27:27.053Z,9.66
2019-03-05T11:28:27.311Z,9.78
2019-03-05T11:29:27.036Z,10.20
2019-03-05T11:30:35.780Z,10.06
2019-03-05T11:31:28.626Z,10.16
2019-03-05T11:32:27.322Z,10.39
2019-03-05T11:33:26.930Z,10.06
2019-03-05T11:34:27.138Z,9.94
2019-03-05T11:35:27.612Z,10.03
2019-03-05T11:36:27.533Z,9.78
2019-03-05T11:37:26.926Z,10.16
2019-03-05T11:39:26.924Z,10.05
2019-03-05T11:40:26.855Z,10.23
2019-03-05T11:41:26.763Z,10.82
2019-03-05T11:42:27.005Z,11.84
2019-03-05T11:43:27.460Z,11.89
2019-03-05T11:44:27.071Z,10.73
2019-03-05T11:45:26.701Z,10.49
2019-03-05T11:48:26.637Z,9.85
2019-03-05T11:49:26.652Z,9.87
2019-03-05T11:50:26.966Z,9.85
2019-03-05T11:51:26.795Z,9.85
2019-03-05T11:52:26.634Z,9.70
2019-03-05T11:53:26.732Z,9.69
2019-03-05T11:54:26.537Z,9.44
2019-03-05T11:55:26.660Z,9.54
2019-03-05T11:56:26.907Z,9.51
2019-03-05T11:57:26.575Z,9.55
2019-03-05T11:58:26.452Z,9.52
2019-03-05T11:59:26.549Z,9.59
2019-03-05T12:00:26.536Z,9.57
2019-03-05T12:01:26.449Z,9.66
2019-03-05T12:02:26.874Z,9.62
2019-03-05T12:04:26.330Z,9.75
2019-03-05T12:05:26.394Z,9.72
2019-03-05T12:06:26.309Z,9.66
2019-03-05T12:07:26.404Z,9.59
2019-03-05T12:08:26.606Z,9.73
2019-03-05T12:09:26.267Z,9.81
2019-03-05T12:10:26.541Z,9.91
2019-03-05T12:11:26.495Z,9.94
2019-03-05T12:13:26.311Z,9.93
2019-03-05T12:14:26.626Z,9.88
2019-03-05T12:15:26.368Z,9.83
2019-03-05T12:17:26.139Z,9.69
2019-03-05T12:20:26.628Z,9.94
2019-03-05T12:21:26.951Z,9.94
2019-03-05T12:22:27.962Z,9.93
2019-03-05T12:23:26.969Z,10.52
2019-03-05T12:24:26.103Z,11.15
2019-03-05T12:25:26.096Z,11.73
2019-03-05T12:26:26.308Z,12.13
2019-03-05T12:27:27.155Z,12.13
2019-03-05T12:28:25.935Z,12.44
2019-03-05T12:29:26.029Z,12.44
2019-03-05T12:30:25.960Z,11.88
2019-03-05T12:31:25.910Z,11.25
2019-03-05T12:32:27.245Z,10.91
2019-03-05T12:33:26.411Z,11.34
2019-03-05T12:34:25.972Z,11.19
2019-03-05T12:35:25.837Z,10.64
2019-03-05T12:36:25.773Z,10.62
2019-03-05T12:37:25.761Z,10.68
2019-03-05T12:38:26.106Z,10.23
2019-03-05T12:39:25.737Z,10.14
2019-03-05T12:40:25.665Z,10.03
2019-03-05T12:41:25.662Z,10.20
2019-03-05T12:42:25.615Z,10.21
2019-03-05T12:43:25.661Z,10.14
2019-03-05T12:44:25.970Z,9.91
2019-03-05T12:45:25.705Z,9.88
2019-03-05T12:46:30.762Z,9.90
2019-03-05T12:48:25.647Z,9.96
2019-03-05T12:49:25.546Z,9.80
2019-03-05T12:50:25.880Z,9.67
2019-03-05T12:51:25.551Z,9.70
2019-03-05T12:52:26.605Z,9.77
2019-03-05T12:53:26.277Z,9.73
2019-03-05T12:55:26.425Z,9.48
2019-03-05T12:56:26.234Z,9.40
2019-03-05T12:57:26.278Z,9.44
2019-03-05T12:58:26.451Z,9.44
2019-03-05T13:00:25.712Z,9.48
2019-03-05T13:02:26.222Z,9.65
2019-03-05T13:03:25.270Z,9.51
2019-03-05T13:04:25.264Z,9.54
2019-03-05T13:05:25.220Z,9.66
2019-03-05T13:06:25.222Z,9.75
2019-03-05T13:07:25.389Z,9.83
2019-03-05T13:08:25.849Z,9.84
2019-03-05T13:10:25.267Z,9.90
2019-03-05T13:11:25.273Z,10.01
2019-03-05T13:12:25.236Z,9.93
2019-03-05T13:13:25.155Z,10.06
2019-03-05T13:14:26.921Z,10.10
2019-03-05T13:15:25.142Z,10.03
2019-03-05T13:16:25.961Z,10.20
2019-03-05T13:17:25.333Z,10.24
2019-03-05T13:18:26.894Z,10.08
2019-03-05T13:19:24.890Z,10.16
2019-03-05T13:20:26.264Z,10.17
2019-03-05T13:22:28.738Z,10.05
2019-03-05T13:23:24.805Z,9.83
2019-03-05T13:24:24.896Z,9.30
2019-03-05T13:25:28.520Z,8.65
2019-03-05T13:26:27.624Z,8.24
2019-03-05T13:27:28.036Z,7.49
2019-03-05T13:28:25.695Z,7.11
2019-03-05T13:29:24.970Z,6.74
2019-03-05T13:30:25.767Z,6.52
2019-03-05T13:31:24.782Z,6.53
2019-03-05T13:33:25.003Z,6.46
2019-03-05T13:34:25.059Z,6.45
2019-03-05T13:35:25.486Z,6.53
2019-03-05T13:36:24.872Z,6.60
2019-03-05T13:37:28.518Z,6.73
2019-03-05T13:39:25.239Z,6.73
2019-03-05T13:40:25.504Z,6.78
2019-03-05T13:41:25.014Z,6.73
2019-03-05T13:42:24.637Z,6.81
2019-03-05T13:43:24.494Z,6.82
2019-03-05T13:44:27.947Z,6.91
2019-03-05T13:45:24.812Z,6.83
2019-03-05T13:46:25.925Z,6.89
2019-03-05T13:47:24.816Z,6.88
2019-03-05T13:48:24.468Z,6.92
2019-03-05T13:49:24.296Z,6.81
2019-03-05T13:50:24.413Z,6.96
2019-03-05T13:51:24.703Z,6.83
2019-03-05T13:52:24.615Z,6.79
2019-03-05T13:53:24.274Z,6.82
2019-03-05T13:54:24.243Z,6.81
2019-03-05T13:55:26.833Z,6.82
2019-03-05T13:56:24.203Z,6.81
2019-03-05T13:57:24.269Z,6.85
2019-03-05T13:58:24.425Z,6.89
2019-03-05T13:59:25.224Z,6.78
2019-03-05T14:00:24.081Z,6.74
2019-03-05T14:01:24.073Z,6.86
2019-03-05T14:02:24.074Z,6.78
2019-03-05T14:03:24.048Z,6.81
2019-03-05T14:04:24.293Z,6.81
2019-03-05T14:05:23.991Z,6.82
2019-03-05T14:06:23.939Z,6.79
2019-03-05T14:07:23.882Z,6.85
2019-03-05T14:08:23.965Z,6.71
2019-03-05T14:09:24.137Z,6.82
2019-03-05T14:10:26.098Z,6.81
2019-03-05T14:11:24.023Z,6.78
2019-03-05T14:12:23.810Z,6.89
2019-03-05T14:13:23.996Z,6.89
2019-03-05T14:14:23.699Z,6.89
2019-03-05T14:15:23.714Z,6.96
2019-03-05T14:16:24.087Z,6.86
2019-03-05T14:17:23.617Z,7.06
2019-03-05T14:18:23.601Z,6.89